sensor_id;sensor_type;location;lat;lon;timestamp;P1;durP1;ratioP1;P2;durP2;ratioP2
36575;SDS011;45700;50.930;5.168;2022-08-19T00:00:57;14.75;;;10.02;;
36575;SDS011;45700;50.930;5.168;2022-08-19T00:04:59;19.27;;;11.55;;
36575;SDS011;45700;50.930;5.168;2022-08-19T00:08:59;17.15;;;11.35;;
36575;SDS011;45700;50.930;5.168;2022-08-19T00:13:01;17.83;;;12.40;;
36575;SDS011;45700;50.930;5.168;2022-08-19T00:17:02;16.25;;;10.95;;
36575;SDS011;45700;50.930;5.168;2022-08-19T00:21:03;17.80;;;12.00;;
36575;SDS011;45700;50.930;5.168;2022-08-19T00:25:08;20.60;;;12.50;;
36575;SDS011;45700;50.930;5.168;2022-08-19T00:29:10;17.33;;;11.98;;
36575;SDS011;45700;50.930;5.168;2022-08-19T00:33:12;16.92;;;11.45;;
36575;SDS011;45700;50.930;5.168;2022-08-19T00:37:13;17.27;;;11.93;;
36575;SDS011;45700;50.930;5.168;2022-08-19T00:41:15;18.55;;;12.27;;
36575;SDS011;45700;50.930;5.168;2022-08-19T00:45:22;17.80;;;11.98;;
36575;SDS011;45700;50.930;5.168;2022-08-19T00:49:31;17.08;;;12.15;;
36575;SDS011;45700;50.930;5.168;2022-08-19T00:53:33;18.65;;;12.63;;
36575;SDS011;45700;50.930;5.168;2022-08-19T00:57:35;22.10;;;12.98;;
36575;SDS011;45700;50.930;5.168;2022-08-19T01:01:38;18.67;;;12.75;;
36575;SDS011;45700;50.930;5.168;2022-08-19T01:05:41;18.35;;;12.20;;
36575;SDS011;45700;50.930;5.168;2022-08-19T01:09:42;17.55;;;12.00;;
36575;SDS011;45700;50.930;5.168;2022-08-19T01:13:44;18.15;;;12.07;;
36575;SDS011;45700;50.930;5.168;2022-08-19T01:17:45;17.17;;;12.15;;
36575;SDS011;45700;50.930;5.168;2022-08-19T01:21:52;19.52;;;12.25;;
36575;SDS011;45700;50.930;5.168;2022-08-19T01:25:54;18.95;;;12.25;;
36575;SDS011;45700;50.930;5.168;2022-08-19T01:29:55;20.10;;;12.63;;
36575;SDS011;45700;50.930;5.168;2022-08-19T01:33:57;21.05;;;12.88;;
36575;SDS011;45700;50.930;5.168;2022-08-19T01:38:00;24.40;;;14.18;;
36575;SDS011;45700;50.930;5.168;2022-08-19T01:42:01;22.98;;;14.05;;
36575;SDS011;45700;50.930;5.168;2022-08-19T01:46:03;26.88;;;13.88;;
36575;SDS011;45700;50.930;5.168;2022-08-19T01:50:05;23.42;;;14.88;;
36575;SDS011;45700;50.930;5.168;2022-08-19T01:54:08;26.98;;;15.20;;
36575;SDS011;45700;50.930;5.168;2022-08-19T01:58:13;25.63;;;15.13;;
36575;SDS011;45700;50.930;5.168;2022-08-19T02:02:14;26.85;;;14.98;;
36575;SDS011;45700;50.930;5.168;2022-08-19T02:06:16;25.45;;;15.32;;
36575;SDS011;45700;50.930;5.168;2022-08-19T02:10:18;27.75;;;14.77;;
36575;SDS011;45700;50.930;5.168;2022-08-19T02:14:20;26.23;;;15.23;;
36575;SDS011;45700;50.930;5.168;2022-08-19T02:18:21;24.38;;;14.60;;
36575;SDS011;45700;50.930;5.168;2022-08-19T02:22:23;28.30;;;15.07;;
36575;SDS011;45700;50.930;5.168;2022-08-19T02:26:25;31.85;;;16.35;;
36575;SDS011;45700;50.930;5.168;2022-08-19T02:30:26;34.38;;;17.27;;
36575;SDS011;45700;50.930;5.168;2022-08-19T02:34:27;32.78;;;17.45;;
36575;SDS011;45700;50.930;5.168;2022-08-19T02:38:29;33.67;;;17.40;;
36575;SDS011;45700;50.930;5.168;2022-08-19T02:42:30;33.35;;;17.35;;
36575;SDS011;45700;50.930;5.168;2022-08-19T02:46:32;33.83;;;17.77;;
36575;SDS011;45700;50.930;5.168;2022-08-19T02:50:33;32.50;;;18.05;;
36575;SDS011;45700;50.930;5.168;2022-08-19T02:54:34;33.28;;;17.35;;
36575;SDS011;45700;50.930;5.168;2022-08-19T02:58:36;34.72;;;17.75;;
36575;SDS011;45700;50.930;5.168;2022-08-19T03:02:37;34.88;;;18.48;;
36575;SDS011;45700;50.930;5.168;2022-08-19T03:06:39;36.47;;;18.25;;
36575;SDS011;45700;50.930;5.168;2022-08-19T03:10:46;36.63;;;19.73;;
36575;SDS011;45700;50.930;5.168;2022-08-19T03:14:48;38.08;;;19.65;;
36575;SDS011;45700;50.930;5.168;2022-08-19T03:18:49;41.42;;;19.95;;
36575;SDS011;45700;50.930;5.168;2022-08-19T03:22:50;42.05;;;19.48;;
36575;SDS011;45700;50.930;5.168;2022-08-19T03:26:52;36.90;;;19.83;;
36575;SDS011;45700;50.930;5.168;2022-08-19T03:31:02;41.47;;;19.02;;
36575;SDS011;45700;50.930;5.168;2022-08-19T03:35:04;41.80;;;19.52;;
36575;SDS011;45700;50.930;5.168;2022-08-19T03:39:05;43.83;;;19.77;;
36575;SDS011;45700;50.930;5.168;2022-08-19T03:43:08;39.83;;;19.42;;
36575;SDS011;45700;50.930;5.168;2022-08-19T03:47:09;40.05;;;18.38;;
36575;SDS011;45700;50.930;5.168;2022-08-19T03:51:16;41.80;;;19.65;;
36575;SDS011;45700;50.930;5.168;2022-08-19T03:55:17;39.78;;;19.05;;
36575;SDS011;45700;50.930;5.168;2022-08-19T03:59:23;44.58;;;20.27;;
36575;SDS011;45700;50.930;5.168;2022-08-19T04:03:25;40.65;;;18.95;;
36575;SDS011;45700;50.930;5.168;2022-08-19T04:07:27;41.47;;;20.13;;
36575;SDS011;45700;50.930;5.168;2022-08-19T04:11:29;40.60;;;18.80;;
36575;SDS011;45700;50.930;5.168;2022-08-19T04:15:31;46.67;;;20.85;;
36575;SDS011;45700;50.930;5.168;2022-08-19T04:19:38;46.10;;;20.25;;
36575;SDS011;45700;50.930;5.168;2022-08-19T04:23:39;44.35;;;19.45;;
36575;SDS011;45700;50.930;5.168;2022-08-19T04:27:40;51.20;;;21.50;;
36575;SDS011;45700;50.930;5.168;2022-08-19T04:31:46;48.58;;;21.20;;
36575;SDS011;45700;50.930;5.168;2022-08-19T04:35:47;43.08;;;20.15;;
36575;SDS011;45700;50.930;5.168;2022-08-19T04:39:49;45.88;;;21.05;;
36575;SDS011;45700;50.930;5.168;2022-08-19T04:44:09;43.63;;;21.23;;
36575;SDS011;45700;50.930;5.168;2022-08-19T04:48:10;42.90;;;21.10;;
36575;SDS011;45700;50.930;5.168;2022-08-19T04:52:11;43.78;;;19.92;;
36575;SDS011;45700;50.930;5.168;2022-08-19T04:56:13;43.55;;;20.23;;
36575;SDS011;45700;50.930;5.168;2022-08-19T05:00:15;45.22;;;20.77;;
36575;SDS011;45700;50.930;5.168;2022-08-19T05:04:17;46.22;;;20.83;;
36575;SDS011;45700;50.930;5.168;2022-08-19T05:08:20;40.92;;;19.38;;
36575;SDS011;45700;50.930;5.168;2022-08-19T05:12:21;43.58;;;20.73;;
36575;SDS011;45700;50.930;5.168;2022-08-19T05:16:23;45.25;;;21.05;;
36575;SDS011;45700;50.930;5.168;2022-08-19T05:20:24;43.08;;;21.33;;
36575;SDS011;45700;50.930;5.168;2022-08-19T05:24:44;44.85;;;20.83;;
36575;SDS011;45700;50.930;5.168;2022-08-19T05:28:45;44.78;;;21.55;;
36575;SDS011;45700;50.930;5.168;2022-08-19T05:32:46;46.85;;;21.05;;
36575;SDS011;45700;50.930;5.168;2022-08-19T05:36:47;45.22;;;21.50;;
36575;SDS011;45700;50.930;5.168;2022-08-19T05:40:49;40.42;;;19.90;;
36575;SDS011;45700;50.930;5.168;2022-08-19T05:44:50;47.80;;;21.30;;
36575;SDS011;45700;50.930;5.168;2022-08-19T05:48:51;39.25;;;18.83;;
36575;SDS011;45700;50.930;5.168;2022-08-19T05:52:53;44.15;;;19.38;;
36575;SDS011;45700;50.930;5.168;2022-08-19T05:56:54;43.53;;;19.88;;
36575;SDS011;45700;50.930;5.168;2022-08-19T06:00:55;39.38;;;18.65;;
36575;SDS011;45700;50.930;5.168;2022-08-19T06:04:56;41.97;;;19.00;;
36575;SDS011;45700;50.930;5.168;2022-08-19T06:08:57;42.42;;;18.02;;
36575;SDS011;45700;50.930;5.168;2022-08-19T06:12:58;35.58;;;17.20;;
36575;SDS011;45700;50.930;5.168;2022-08-19T06:17:00;37.38;;;17.67;;
36575;SDS011;45700;50.930;5.168;2022-08-19T06:21:01;33.35;;;16.55;;
36575;SDS011;45700;50.930;5.168;2022-08-19T06:25:04;34.13;;;15.48;;
36575;SDS011;45700;50.930;5.168;2022-08-19T06:29:05;28.52;;;14.45;;
36575;SDS011;45700;50.930;5.168;2022-08-19T06:33:07;27.15;;;13.55;;
36575;SDS011;45700;50.930;5.168;2022-08-19T06:37:08;28.63;;;14.10;;
36575;SDS011;45700;50.930;5.168;2022-08-19T06:41:09;26.08;;;12.60;;
36575;SDS011;45700;50.930;5.168;2022-08-19T06:45:11;22.80;;;11.77;;
36575;SDS011;45700;50.930;5.168;2022-08-19T06:49:12;23.85;;;11.98;;
36575;SDS011;45700;50.930;5.168;2022-08-19T06:53:13;22.67;;;11.80;;
36575;SDS011;45700;50.930;5.168;2022-08-19T06:57:14;22.75;;;11.80;;
36575;SDS011;45700;50.930;5.168;2022-08-19T07:01:16;22.02;;;11.32;;
36575;SDS011;45700;50.930;5.168;2022-08-19T07:05:17;22.48;;;10.98;;
36575;SDS011;45700;50.930;5.168;2022-08-19T07:09:18;22.95;;;11.98;;
36575;SDS011;45700;50.930;5.168;2022-08-19T07:13:19;25.55;;;11.60;;
36575;SDS011;45700;50.930;5.168;2022-08-19T07:17:21;25.77;;;12.68;;
36575;SDS011;45700;50.930;5.168;2022-08-19T07:21:23;23.38;;;12.30;;
36575;SDS011;45700;50.930;5.168;2022-08-19T07:25:27;30.08;;;12.07;;
36575;SDS011;45700;50.930;5.168;2022-08-19T07:29:29;25.35;;;13.20;;
36575;SDS011;45700;50.930;5.168;2022-08-19T07:33:30;27.77;;;13.18;;
36575;SDS011;45700;50.930;5.168;2022-08-19T07:37:32;24.67;;;12.38;;
36575;SDS011;45700;50.930;5.168;2022-08-19T07:41:35;27.63;;;12.25;;
36575;SDS011;45700;50.930;5.168;2022-08-19T07:45:36;22.67;;;12.60;;
36575;SDS011;45700;50.930;5.168;2022-08-19T07:49:37;25.30;;;12.23;;
36575;SDS011;45700;50.930;5.168;2022-08-19T07:53:39;21.35;;;11.40;;
36575;SDS011;45700;50.930;5.168;2022-08-19T07:57:40;23.02;;;12.43;;
36575;SDS011;45700;50.930;5.168;2022-08-19T08:01:41;19.48;;;10.68;;
36575;SDS011;45700;50.930;5.168;2022-08-19T08:05:42;22.23;;;11.13;;
36575;SDS011;45700;50.930;5.168;2022-08-19T08:10:04;23.27;;;11.07;;
36575;SDS011;45700;50.930;5.168;2022-08-19T08:14:05;18.95;;;10.65;;
36575;SDS011;45700;50.930;5.168;2022-08-19T08:18:06;18.77;;;10.38;;
36575;SDS011;45700;50.930;5.168;2022-08-19T08:22:08;18.42;;;10.00;;
36575;SDS011;45700;50.930;5.168;2022-08-19T08:26:29;17.65;;;10.02;;
36575;SDS011;45700;50.930;5.168;2022-08-19T08:30:30;18.33;;;9.63;;
36575;SDS011;45700;50.930;5.168;2022-08-19T08:34:34;14.65;;;7.97;;
36575;SDS011;45700;50.930;5.168;2022-08-19T08:38:37;14.15;;;8.68;;
36575;SDS011;45700;50.930;5.168;2022-08-19T08:42:39;12.77;;;7.47;;
36575;SDS011;45700;50.930;5.168;2022-08-19T08:46:51;14.05;;;7.50;;
36575;SDS011;45700;50.930;5.168;2022-08-19T08:50:54;13.00;;;7.07;;
36575;SDS011;45700;50.930;5.168;2022-08-19T08:54:57;12.52;;;6.97;;
36575;SDS011;45700;50.930;5.168;2022-08-19T08:59:00;10.05;;;6.15;;
36575;SDS011;45700;50.930;5.168;2022-08-19T09:03:06;11.23;;;6.50;;
36575;SDS011;45700;50.930;5.168;2022-08-19T09:15:32;8.55;;;6.00;;
36575;SDS011;45700;50.930;5.168;2022-08-19T09:19:36;10.48;;;5.75;;
36575;SDS011;45700;50.930;5.168;2022-08-19T09:23:47;8.52;;;5.40;;
36575;SDS011;45700;50.930;5.168;2022-08-19T09:27:48;6.40;;;4.25;;
36575;SDS011;45700;50.930;5.168;2022-08-19T09:31:49;7.57;;;4.40;;
36575;SDS011;45700;50.930;5.168;2022-08-19T09:36:01;6.50;;;4.22;;
36575;SDS011;45700;50.930;5.168;2022-08-19T09:40:03;7.43;;;3.90;;
36575;SDS011;45700;50.930;5.168;2022-08-19T09:44:04;6.05;;;3.65;;
36575;SDS011;45700;50.930;5.168;2022-08-19T09:48:06;6.18;;;3.85;;
36575;SDS011;45700;50.930;5.168;2022-08-19T09:52:10;6.75;;;4.20;;
36575;SDS011;45700;50.930;5.168;2022-08-19T09:56:11;6.75;;;3.72;;
36575;SDS011;45700;50.930;5.168;2022-08-19T10:00:13;3.65;;;3.13;;
36575;SDS011;45700;50.930;5.168;2022-08-19T10:04:14;5.63;;;2.95;;
36575;SDS011;45700;50.930;5.168;2022-08-19T10:08:16;4.18;;;2.92;;
36575;SDS011;45700;50.930;5.168;2022-08-19T10:12:17;4.30;;;3.03;;
36575;SDS011;45700;50.930;5.168;2022-08-19T10:16:20;3.75;;;2.70;;
36575;SDS011;45700;50.930;5.168;2022-08-19T10:20:22;3.33;;;2.38;;
36575;SDS011;45700;50.930;5.168;2022-08-19T10:24:23;2.78;;;2.45;;
36575;SDS011;45700;50.930;5.168;2022-08-19T10:28:25;3.55;;;2.60;;
36575;SDS011;45700;50.930;5.168;2022-08-19T10:32:26;5.22;;;2.60;;
36575;SDS011;45700;50.930;5.168;2022-08-19T10:36:32;3.00;;;2.70;;
36575;SDS011;45700;50.930;5.168;2022-08-19T10:40:35;3.45;;;2.92;;
36575;SDS011;45700;50.930;5.168;2022-08-19T10:44:36;5.07;;;2.85;;
36575;SDS011;45700;50.930;5.168;2022-08-19T10:48:37;3.33;;;2.47;;
36575;SDS011;45700;50.930;5.168;2022-08-19T10:52:42;4.32;;;2.78;;
36575;SDS011;45700;50.930;5.168;2022-08-19T10:56:43;4.97;;;2.85;;
36575;SDS011;45700;50.930;5.168;2022-08-19T11:00:54;4.72;;;2.85;;
36575;SDS011;45700;50.930;5.168;2022-08-19T11:04:55;3.42;;;2.60;;
36575;SDS011;45700;50.930;5.168;2022-08-19T11:08:56;4.63;;;3.10;;
36575;SDS011;45700;50.930;5.168;2022-08-19T11:12:59;6.07;;;2.60;;
36575;SDS011;45700;50.930;5.168;2022-08-19T11:17:01;5.35;;;3.20;;
36575;SDS011;45700;50.930;5.168;2022-08-19T11:21:06;5.15;;;2.60;;
36575;SDS011;45700;50.930;5.168;2022-08-19T11:25:10;4.13;;;2.60;;
36575;SDS011;45700;50.930;5.168;2022-08-19T11:29:12;6.35;;;2.90;;
36575;SDS011;45700;50.930;5.168;2022-08-19T11:33:13;4.88;;;2.90;;
36575;SDS011;45700;50.930;5.168;2022-08-19T11:37:14;3.22;;;2.45;;
36575;SDS011;45700;50.930;5.168;2022-08-19T11:41:16;3.60;;;2.28;;
36575;SDS011;45700;50.930;5.168;2022-08-19T11:45:18;3.47;;;2.70;;
36575;SDS011;45700;50.930;5.168;2022-08-19T11:49:19;3.55;;;2.63;;
36575;SDS011;45700;50.930;5.168;2022-08-19T11:53:21;3.88;;;2.53;;
36575;SDS011;45700;50.930;5.168;2022-08-19T11:57:22;4.50;;;2.67;;
36575;SDS011;45700;50.930;5.168;2022-08-19T12:01:24;3.22;;;2.45;;
36575;SDS011;45700;50.930;5.168;2022-08-19T12:05:25;4.50;;;2.20;;
36575;SDS011;45700;50.930;5.168;2022-08-19T12:09:26;4.57;;;2.45;;
36575;SDS011;45700;50.930;5.168;2022-08-19T12:13:30;3.30;;;2.20;;
36575;SDS011;45700;50.930;5.168;2022-08-19T12:17:31;3.85;;;2.20;;
36575;SDS011;45700;50.930;5.168;2022-08-19T12:21:34;3.65;;;2.15;;
36575;SDS011;45700;50.930;5.168;2022-08-19T12:25:43;3.00;;;2.03;;
36575;SDS011;45700;50.930;5.168;2022-08-19T12:29:49;2.97;;;2.22;;
36575;SDS011;45700;50.930;5.168;2022-08-19T12:33:50;4.35;;;2.70;;
36575;SDS011;45700;50.930;5.168;2022-08-19T12:37:52;3.38;;;2.25;;
36575;SDS011;45700;50.930;5.168;2022-08-19T12:41:53;3.38;;;2.10;;
36575;SDS011;45700;50.930;5.168;2022-08-19T12:45:54;3.65;;;2.17;;
36575;SDS011;45700;50.930;5.168;2022-08-19T12:49:55;2.25;;;1.70;;
36575;SDS011;45700;50.930;5.168;2022-08-19T12:53:56;4.28;;;2.20;;
36575;SDS011;45700;50.930;5.168;2022-08-19T12:57:57;1.58;;;1.25;;
36575;SDS011;45700;50.930;5.168;2022-08-19T13:02:01;2.08;;;1.77;;
36575;SDS011;45700;50.930;5.168;2022-08-19T13:06:03;2.65;;;1.40;;
36575;SDS011;45700;50.930;5.168;2022-08-19T13:10:05;2.03;;;1.45;;
36575;SDS011;45700;50.930;5.168;2022-08-19T13:14:06;3.38;;;1.77;;
36575;SDS011;45700;50.930;5.168;2022-08-19T13:18:08;1.65;;;1.35;;
36575;SDS011;45700;50.930;5.168;2022-08-19T13:22:10;1.60;;;1.50;;
36575;SDS011;45700;50.930;5.168;2022-08-19T13:26:11;2.70;;;1.95;;
36575;SDS011;45700;50.930;5.168;2022-08-19T13:30:14;4.15;;;1.95;;
36575;SDS011;45700;50.930;5.168;2022-08-19T13:34:34;2.03;;;1.52;;
36575;SDS011;45700;50.930;5.168;2022-08-19T13:38:36;3.13;;;1.77;;
36575;SDS011;45700;50.930;5.168;2022-08-19T13:42:41;4.93;;;2.10;;
36575;SDS011;45700;50.930;5.168;2022-08-19T13:46:42;3.50;;;2.47;;
36575;SDS011;45700;50.930;5.168;2022-08-19T13:50:45;3.72;;;2.10;;
36575;SDS011;45700;50.930;5.168;2022-08-19T13:54:47;3.20;;;2.00;;
36575;SDS011;45700;50.930;5.168;2022-08-19T13:58:49;3.10;;;2.15;;
36575;SDS011;45700;50.930;5.168;2022-08-19T14:02:51;3.67;;;2.42;;
36575;SDS011;45700;50.930;5.168;2022-08-19T14:06:52;2.95;;;2.00;;
36575;SDS011;45700;50.930;5.168;2022-08-19T14:10:54;2.60;;;1.90;;
36575;SDS011;45700;50.930;5.168;2022-08-19T14:14:55;2.17;;;1.85;;
36575;SDS011;45700;50.930;5.168;2022-08-19T14:18:56;2.33;;;1.80;;
36575;SDS011;45700;50.930;5.168;2022-08-19T14:22:57;2.72;;;1.85;;
36575;SDS011;45700;50.930;5.168;2022-08-19T14:26:59;2.72;;;1.90;;
36575;SDS011;45700;50.930;5.168;2022-08-19T14:31:00;2.30;;;1.77;;
36575;SDS011;45700;50.930;5.168;2022-08-19T14:35:01;2.72;;;2.10;;
36575;SDS011;45700;50.930;5.168;2022-08-19T14:39:03;2.53;;;1.92;;
36575;SDS011;45700;50.930;5.168;2022-08-19T14:43:04;3.42;;;2.10;;
36575;SDS011;45700;50.930;5.168;2022-08-19T14:47:05;2.83;;;1.98;;
36575;SDS011;45700;50.930;5.168;2022-08-19T14:51:07;2.30;;;2.10;;
36575;SDS011;45700;50.930;5.168;2022-08-19T14:55:08;2.00;;;1.70;;
36575;SDS011;45700;50.930;5.168;2022-08-19T14:59:09;2.92;;;2.05;;
36575;SDS011;45700;50.930;5.168;2022-08-19T15:03:10;1.95;;;1.70;;
36575;SDS011;45700;50.930;5.168;2022-08-19T15:07:13;1.85;;;1.65;;
36575;SDS011;45700;50.930;5.168;2022-08-19T15:11:15;2.72;;;2.08;;
36575;SDS011;45700;50.930;5.168;2022-08-19T15:15:16;2.92;;;2.00;;
36575;SDS011;45700;50.930;5.168;2022-08-19T15:19:17;2.20;;;1.73;;
36575;SDS011;45700;50.930;5.168;2022-08-19T15:23:19;2.53;;;1.65;;
36575;SDS011;45700;50.930;5.168;2022-08-19T15:27:20;2.13;;;1.83;;
36575;SDS011;45700;50.930;5.168;2022-08-19T15:31:21;2.67;;;1.95;;
36575;SDS011;45700;50.930;5.168;2022-08-19T15:35:23;1.90;;;1.70;;
36575;SDS011;45700;50.930;5.168;2022-08-19T15:39:24;3.70;;;2.05;;
36575;SDS011;45700;50.930;5.168;2022-08-19T15:43:25;2.00;;;1.80;;
36575;SDS011;45700;50.930;5.168;2022-08-19T15:47:27;1.30;;;1.20;;
36575;SDS011;45700;50.930;5.168;2022-08-19T15:51:30;1.10;;;1.00;;
36575;SDS011;45700;50.930;5.168;2022-08-19T15:55:33;1.30;;;1.10;;
36575;SDS011;45700;50.930;5.168;2022-08-19T15:59:35;1.17;;;0.80;;
36575;SDS011;45700;50.930;5.168;2022-08-19T16:03:55;1.10;;;1.00;;
36575;SDS011;45700;50.930;5.168;2022-08-19T16:08:15;2.08;;;1.23;;
36575;SDS011;45700;50.930;5.168;2022-08-19T16:12:16;0.95;;;0.90;;
36575;SDS011;45700;50.930;5.168;2022-08-19T16:16:21;1.02;;;0.90;;
36575;SDS011;45700;50.930;5.168;2022-08-19T16:20:23;1.85;;;0.95;;
36575;SDS011;45700;50.930;5.168;2022-08-19T16:24:25;1.50;;;0.80;;
36575;SDS011;45700;50.930;5.168;2022-08-19T16:28:27;0.50;;;0.50;;
36575;SDS011;45700;50.930;5.168;2022-08-19T16:32:28;0.40;;;0.40;;
36575;SDS011;45700;50.930;5.168;2022-08-19T16:36:29;0.30;;;0.30;;
36575;SDS011;45700;50.930;5.168;2022-08-19T16:40:30;0.57;;;0.30;;
36575;SDS011;45700;50.930;5.168;2022-08-19T16:44:31;1.08;;;0.65;;
36575;SDS011;45700;50.930;5.168;2022-08-19T16:48:32;0.47;;;0.38;;
36575;SDS011;45700;50.930;5.168;2022-08-19T16:52:33;0.38;;;0.30;;
36575;SDS011;45700;50.930;5.168;2022-08-19T16:56:35;0.40;;;0.30;;
36575;SDS011;45700;50.930;5.168;2022-08-19T17:00:36;0.43;;;0.40;;
36575;SDS011;45700;50.930;5.168;2022-08-19T17:04:38;0.35;;;0.30;;
36575;SDS011;45700;50.930;5.168;2022-08-19T17:08:40;0.35;;;0.35;;
36575;SDS011;45700;50.930;5.168;2022-08-19T17:12:41;1.00;;;0.60;;
36575;SDS011;45700;50.930;5.168;2022-08-19T17:16:42;0.30;;;0.30;;
36575;SDS011;45700;50.930;5.168;2022-08-19T17:20:43;0.25;;;0.20;;
36575;SDS011;45700;50.930;5.168;2022-08-19T17:24:45;0.20;;;0.20;;
36575;SDS011;45700;50.930;5.168;2022-08-19T17:28:47;0.20;;;0.10;;
36575;SDS011;45700;50.930;5.168;2022-08-19T17:32:48;0.25;;;0.25;;
36575;SDS011;45700;50.930;5.168;2022-08-19T17:36:50;1.20;;;0.20;;
36575;SDS011;45700;50.930;5.168;2022-08-19T17:40:52;0.20;;;0.20;;
36575;SDS011;45700;50.930;5.168;2022-08-19T17:45:00;0.15;;;0.15;;
36575;SDS011;45700;50.930;5.168;2022-08-19T17:49:01;0.30;;;0.20;;
36575;SDS011;45700;50.930;5.168;2022-08-19T17:53:02;0.30;;;0.30;;
36575;SDS011;45700;50.930;5.168;2022-08-19T17:57:04;0.30;;;0.30;;
36575;SDS011;45700;50.930;5.168;2022-08-19T18:01:09;0.68;;;0.40;;
36575;SDS011;45700;50.930;5.168;2022-08-19T18:05:10;0.55;;;0.52;;
36575;SDS011;45700;50.930;5.168;2022-08-19T18:09:12;0.45;;;0.30;;
36575;SDS011;45700;50.930;5.168;2022-08-19T18:13:13;1.40;;;0.35;;
36575;SDS011;45700;50.930;5.168;2022-08-19T18:17:15;0.93;;;0.50;;
36575;SDS011;45700;50.930;5.168;2022-08-19T18:21:18;0.77;;;0.52;;
36575;SDS011;45700;50.930;5.168;2022-08-19T18:25:20;0.88;;;0.47;;
36575;SDS011;45700;50.930;5.168;2022-08-19T18:29:23;0.63;;;0.63;;
36575;SDS011;45700;50.930;5.168;2022-08-19T18:33:24;1.70;;;0.70;;
36575;SDS011;45700;50.930;5.168;2022-08-19T18:37:25;0.75;;;0.50;;
36575;SDS011;45700;50.930;5.168;2022-08-19T18:41:26;1.52;;;0.70;;
36575;SDS011;45700;50.930;5.168;2022-08-19T18:45:46;1.23;;;0.65;;
36575;SDS011;45700;50.930;5.168;2022-08-19T18:50:06;0.60;;;0.55;;
36575;SDS011;45700;50.930;5.168;2022-08-19T18:54:08;1.98;;;0.50;;
36575;SDS011;45700;50.930;5.168;2022-08-19T18:58:09;0.60;;;0.55;;
36575;SDS011;45700;50.930;5.168;2022-08-19T19:02:10;1.98;;;1.27;;
36575;SDS011;45700;50.930;5.168;2022-08-19T19:06:15;1.67;;;0.70;;
36575;SDS011;45700;50.930;5.168;2022-08-19T19:10:17;0.80;;;0.68;;
36575;SDS011;45700;50.930;5.168;2022-08-19T19:14:21;2.28;;;1.17;;
36575;SDS011;45700;50.930;5.168;2022-08-19T19:18:23;1.58;;;0.80;;
36575;SDS011;45700;50.930;5.168;2022-08-19T19:22:24;1.55;;;1.10;;
36575;SDS011;45700;50.930;5.168;2022-08-19T19:26:25;1.83;;;1.20;;
36575;SDS011;45700;50.930;5.168;2022-08-19T19:30:27;2.08;;;1.40;;
36575;SDS011;45700;50.930;5.168;2022-08-19T19:34:30;3.65;;;1.80;;
36575;SDS011;45700;50.930;5.168;2022-08-19T19:38:31;3.00;;;1.80;;
36575;SDS011;45700;50.930;5.168;2022-08-19T19:42:32;2.42;;;1.70;;
36575;SDS011;45700;50.930;5.168;2022-08-19T19:46:34;4.18;;;1.70;;
36575;SDS011;45700;50.930;5.168;2022-08-19T19:50:35;2.80;;;2.05;;
36575;SDS011;45700;50.930;5.168;2022-08-19T19:54:37;4.22;;;2.10;;
36575;SDS011;45700;50.930;5.168;2022-08-19T19:58:38;2.83;;;1.77;;
36575;SDS011;45700;50.930;5.168;2022-08-19T20:02:40;4.95;;;2.05;;
36575;SDS011;45700;50.930;5.168;2022-08-19T20:06:43;2.60;;;1.85;;
36575;SDS011;45700;50.930;5.168;2022-08-19T20:10:44;2.97;;;1.80;;
36575;SDS011;45700;50.930;5.168;2022-08-19T20:14:46;4.75;;;2.08;;
36575;SDS011;45700;50.930;5.168;2022-08-19T20:18:47;3.50;;;1.90;;
36575;SDS011;45700;50.930;5.168;2022-08-19T20:22:48;5.20;;;1.90;;
36575;SDS011;45700;50.930;5.168;2022-08-19T20:26:49;2.42;;;2.05;;
36575;SDS011;45700;50.930;5.168;2022-08-19T20:30:50;2.92;;;1.90;;
36575;SDS011;45700;50.930;5.168;2022-08-19T20:34:51;3.88;;;1.80;;
36575;SDS011;45700;50.930;5.168;2022-08-19T20:38:52;3.05;;;1.88;;
36575;SDS011;45700;50.930;5.168;2022-08-19T20:42:53;2.88;;;1.88;;
36575;SDS011;45700;50.930;5.168;2022-08-19T20:46:54;2.90;;;1.95;;
36575;SDS011;45700;50.930;5.168;2022-08-19T20:50:55;2.60;;;2.20;;
36575;SDS011;45700;50.930;5.168;2022-08-19T20:54:56;2.85;;;2.03;;
36575;SDS011;45700;50.930;5.168;2022-08-19T20:58:58;3.65;;;2.13;;
36575;SDS011;45700;50.930;5.168;2022-08-19T21:02:58;3.20;;;2.08;;
36575;SDS011;45700;50.930;5.168;2022-08-19T21:06:59;2.33;;;2.00;;
36575;SDS011;45700;50.930;5.168;2022-08-19T21:11:01;4.07;;;2.25;;
36575;SDS011;45700;50.930;5.168;2022-08-19T21:15:02;5.53;;;2.28;;
36575;SDS011;45700;50.930;5.168;2022-08-19T21:19:04;3.65;;;1.90;;
36575;SDS011;45700;50.930;5.168;2022-08-19T21:23:06;2.40;;;1.92;;
36575;SDS011;45700;50.930;5.168;2022-08-19T21:27:07;2.47;;;1.70;;
36575;SDS011;45700;50.930;5.168;2022-08-19T21:31:08;2.78;;;2.20;;
36575;SDS011;45700;50.930;5.168;2022-08-19T21:35:09;3.38;;;2.47;;
36575;SDS011;45700;50.930;5.168;2022-08-19T21:39:10;4.25;;;2.10;;
36575;SDS011;45700;50.930;5.168;2022-08-19T21:43:11;3.72;;;2.35;;
36575;SDS011;45700;50.930;5.168;2022-08-19T21:47:12;3.92;;;2.58;;
36575;SDS011;45700;50.930;5.168;2022-08-19T21:51:13;3.75;;;2.95;;
36575;SDS011;45700;50.930;5.168;2022-08-19T21:55:15;4.35;;;2.25;;
36575;SDS011;45700;50.930;5.168;2022-08-19T21:59:16;5.03;;;2.58;;
36575;SDS011;45700;50.930;5.168;2022-08-19T22:03:17;4.30;;;2.85;;
36575;SDS011;45700;50.930;5.168;2022-08-19T22:07:19;3.05;;;2.42;;
36575;SDS011;45700;50.930;5.168;2022-08-19T22:11:24;3.08;;;2.25;;
36575;SDS011;45700;50.930;5.168;2022-08-19T22:15:25;3.78;;;2.35;;
36575;SDS011;45700;50.930;5.168;2022-08-19T22:19:28;4.22;;;2.40;;
36575;SDS011;45700;50.930;5.168;2022-08-19T22:23:29;3.88;;;2.47;;
36575;SDS011;45700;50.930;5.168;2022-08-19T22:27:30;3.35;;;2.40;;
36575;SDS011;45700;50.930;5.168;2022-08-19T22:31:31;5.10;;;2.70;;
36575;SDS011;45700;50.930;5.168;2022-08-19T22:35:32;3.50;;;2.35;;
36575;SDS011;45700;50.930;5.168;2022-08-19T22:39:34;5.18;;;2.88;;
36575;SDS011;45700;50.930;5.168;2022-08-19T22:43:36;3.45;;;2.28;;
36575;SDS011;45700;50.930;5.168;2022-08-19T22:47:37;3.53;;;2.28;;
36575;SDS011;45700;50.930;5.168;2022-08-19T22:51:38;3.42;;;2.30;;
36575;SDS011;45700;50.930;5.168;2022-08-19T22:55:58;3.88;;;2.22;;
36575;SDS011;45700;50.930;5.168;2022-08-19T22:59:59;3.45;;;1.88;;
36575;SDS011;45700;50.930;5.168;2022-08-19T23:04:00;2.35;;;1.75;;
36575;SDS011;45700;50.930;5.168;2022-08-19T23:08:02;2.85;;;2.00;;
36575;SDS011;45700;50.930;5.168;2022-08-19T23:12:03;2.60;;;1.70;;
36575;SDS011;45700;50.930;5.168;2022-08-19T23:16:04;3.25;;;2.05;;
36575;SDS011;45700;50.930;5.168;2022-08-19T23:20:06;2.58;;;1.55;;
36575;SDS011;45700;50.930;5.168;2022-08-19T23:24:08;3.30;;;2.08;;
36575;SDS011;45700;50.930;5.168;2022-08-19T23:28:09;2.83;;;1.80;;
36575;SDS011;45700;50.930;5.168;2022-08-19T23:32:32;2.03;;;1.80;;
36575;SDS011;45700;50.930;5.168;2022-08-19T23:36:34;2.53;;;1.58;;
36575;SDS011;45700;50.930;5.168;2022-08-19T23:40:35;5.65;;;1.85;;
36575;SDS011;45700;50.930;5.168;2022-08-19T23:44:37;3.00;;;1.83;;
36575;SDS011;45700;50.930;5.168;2022-08-19T23:48:39;2.85;;;2.08;;
36575;SDS011;45700;50.930;5.168;2022-08-19T23:52:50;3.15;;;2.42;;
36575;SDS011;45700;50.930;5.168;2022-08-19T23:56:51;4.75;;;2.08;;
